sensor_id;sensor_type;location;lat;lon;timestamp;temperature;humidity
3626;DHT22;1827;50.534;8.316;2023-04-06T00:00:52;-1.40;1.00
3626;DHT22;1827;50.534;8.316;2023-04-06T00:03:18;-1.40;1.00
3626;DHT22;1827;50.534;8.316;2023-04-06T00:05:44;-1.50;1.00
3626;DHT22;1827;50.534;8.316;2023-04-06T00:08:10;-1.60;1.00
3626;DHT22;1827;50.534;8.316;2023-04-06T00:10:36;-1.60;1.00
3626;DHT22;1827;50.534;8.316;2023-04-06T00:13:02;-1.60;1.00
3626;DHT22;1827;50.534;8.316;2023-04-06T00:15:28;-1.70;1.00
3626;DHT22;1827;50.534;8.316;2023-04-06T00:17:53;-1.60;1.00
3626;DHT22;1827;50.534;8.316;2023-04-06T00:20:19;-1.50;1.00
3626;DHT22;1827;50.534;8.316;2023-04-06T00:22:45;-1.60;1.00
3626;DHT22;1827;50.534;8.316;2023-04-06T00:25:11;-1.60;1.00
3626;DHT22;1827;50.534;8.316;2023-04-06T00:27:37;-1.60;1.00
3626;DHT22;1827;50.534;8.316;2023-04-06T00:30:06;-1.70;1.00
3626;DHT22;1827;50.534;8.316;2023-04-06T00:32:32;-1.70;1.00
3626;DHT22;1827;50.534;8.316;2023-04-06T00:34:58;-1.70;1.00
3626;DHT22;1827;50.534;8.316;2023-04-06T00:37:23;-1.70;1.00
3626;DHT22;1827;50.534;8.316;2023-04-06T00:39:49;-1.70;1.00
3626;DHT22;1827;50.534;8.316;2023-04-06T00:42:17;-1.80;1.00
3626;DHT22;1827;50.534;8.316;2023-04-06T00:44:43;-1.80;1.00
3626;DHT22;1827;50.534;8.316;2023-04-06T00:47:09;-1.80;1.00
3626;DHT22;1827;50.534;8.316;2023-04-06T00:49:34;-1.90;1.00
3626;DHT22;1827;50.534;8.316;2023-04-06T00:52:01;-1.80;1.00
3626;DHT22;1827;50.534;8.316;2023-04-06T00:54:29;-1.90;1.00
3626;DHT22;1827;50.534;8.316;2023-04-06T00:56:57;-1.90;1.00
3626;DHT22;1827;50.534;8.316;2023-04-06T00:59:24;-1.90;1.00
3626;DHT22;1827;50.534;8.316;2023-04-06T01:01:51;-2.00;1.00
3626;DHT22;1827;50.534;8.316;2023-04-06T01:04:32;-2.10;1.00
3626;DHT22;1827;50.534;8.316;2023-04-06T01:06:59;-2.00;1.00
3626;DHT22;1827;50.534;8.316;2023-04-06T01:09:31;-2.00;1.00
3626;DHT22;1827;50.534;8.316;2023-04-06T01:12:01;-2.10;1.00
3626;DHT22;1827;50.534;8.316;2023-04-06T01:14:30;-2.10;1.00
3626;DHT22;1827;50.534;8.316;2023-04-06T01:16:59;-2.20;1.00
3626;DHT22;1827;50.534;8.316;2023-04-06T01:19:28;-2.20;1.00
3626;DHT22;1827;50.534;8.316;2023-04-06T01:21:55;-2.20;1.00
3626;DHT22;1827;50.534;8.316;2023-04-06T01:24:29;-2.20;1.00
3626;DHT22;1827;50.534;8.316;2023-04-06T01:27:09;-2.30;1.00
3626;DHT22;1827;50.534;8.316;2023-04-06T01:30:01;-2.20;1.00
3626;DHT22;1827;50.534;8.316;2023-04-06T01:32:52;-2.30;1.00
3626;DHT22;1827;50.534;8.316;2023-04-06T01:35:43;-2.30;1.00
3626;DHT22;1827;50.534;8.316;2023-04-06T01:38:12;-2.40;1.00
3626;DHT22;1827;50.534;8.316;2023-04-06T01:40:38;-2.40;1.00
3626;DHT22;1827;50.534;8.316;2023-04-06T01:43:05;-2.40;1.00
3626;DHT22;1827;50.534;8.316;2023-04-06T01:45:42;-2.50;1.00
3626;DHT22;1827;50.534;8.316;2023-04-06T01:48:14;-2.40;1.00
3626;DHT22;1827;50.534;8.316;2023-04-06T01:50:41;-2.40;1.00
3626;DHT22;1827;50.534;8.316;2023-04-06T01:53:08;-2.40;1.00
3626;DHT22;1827;50.534;8.316;2023-04-06T01:55:36;-2.40;1.00
3626;DHT22;1827;50.534;8.316;2023-04-06T01:58:15;-2.40;1.00
3626;DHT22;1827;50.534;8.316;2023-04-06T02:00:41;-2.50;1.00
3626;DHT22;1827;50.534;8.316;2023-04-06T02:03:07;-2.50;1.00
3626;DHT22;1827;50.534;8.316;2023-04-06T02:05:33;-2.40;1.00
3626;DHT22;1827;50.534;8.316;2023-04-06T02:08:04;-2.50;1.00
3626;DHT22;1827;50.534;8.316;2023-04-06T02:10:33;-2.50;1.00
3626;DHT22;1827;50.534;8.316;2023-04-06T02:13:06;-2.50;1.00
3626;DHT22;1827;50.534;8.316;2023-04-06T02:15:32;-2.60;1.00
3626;DHT22;1827;50.534;8.316;2023-04-06T02:17:58;-2.60;1.00
3626;DHT22;1827;50.534;8.316;2023-04-06T02:20:24;-2.60;1.00
3626;DHT22;1827;50.534;8.316;2023-04-06T02:22:50;-2.60;1.00
3626;DHT22;1827;50.534;8.316;2023-04-06T02:25:16;-2.70;1.00
3626;DHT22;1827;50.534;8.316;2023-04-06T02:27:42;-2.70;1.00
3626;DHT22;1827;50.534;8.316;2023-04-06T02:30:07;-2.70;1.00
3626;DHT22;1827;50.534;8.316;2023-04-06T02:32:34;-2.70;1.00
3626;DHT22;1827;50.534;8.316;2023-04-06T02:35:00;-2.80;1.00
3626;DHT22;1827;50.534;8.316;2023-04-06T02:37:26;-2.80;1.00
3626;DHT22;1827;50.534;8.316;2023-04-06T02:39:52;-2.80;1.00
3626;DHT22;1827;50.534;8.316;2023-04-06T02:42:17;-2.80;1.00
3626;DHT22;1827;50.534;8.316;2023-04-06T02:44:45;-2.80;1.00
3626;DHT22;1827;50.534;8.316;2023-04-06T02:47:11;-2.90;1.00
3626;DHT22;1827;50.534;8.316;2023-04-06T02:49:39;-2.90;1.00
3626;DHT22;1827;50.534;8.316;2023-04-06T02:52:05;-2.90;1.00
3626;DHT22;1827;50.534;8.316;2023-04-06T02:54:34;-3.00;1.00
3626;DHT22;1827;50.534;8.316;2023-04-06T02:57:01;-3.00;1.00
3626;DHT22;1827;50.534;8.316;2023-04-06T02:59:35;-2.90;1.00
3626;DHT22;1827;50.534;8.316;2023-04-06T03:02:08;-2.90;1.00
3626;DHT22;1827;50.534;8.316;2023-04-06T03:04:34;-3.00;1.00
3626;DHT22;1827;50.534;8.316;2023-04-06T03:07:03;-2.90;1.00
3626;DHT22;1827;50.534;8.316;2023-04-06T03:09:36;-3.00;1.00
3626;DHT22;1827;50.534;8.316;2023-04-06T03:12:02;-3.00;1.00
3626;DHT22;1827;50.534;8.316;2023-04-06T03:14:30;-3.00;1.00
3626;DHT22;1827;50.534;8.316;2023-04-06T03:16:55;-3.00;1.00
3626;DHT22;1827;50.534;8.316;2023-04-06T03:19:23;-3.00;1.00
3626;DHT22;1827;50.534;8.316;2023-04-06T03:21:49;-3.10;1.00
3626;DHT22;1827;50.534;8.316;2023-04-06T03:24:16;-3.00;12.10
3626;DHT22;1827;50.534;8.316;2023-04-06T03:26:42;-3.00;29.00
3626;DHT22;1827;50.534;8.316;2023-04-06T03:29:08;-3.00;47.50
3626;DHT22;1827;50.534;8.316;2023-04-06T03:31:34;-3.00;67.00
3626;DHT22;1827;50.534;8.316;2023-04-06T03:34:06;-3.00;94.20
3626;DHT22;1827;50.534;8.316;2023-04-06T03:36:34;-3.10;99.90
3626;DHT22;1827;50.534;8.316;2023-04-06T03:39:02;-3.10;99.90
3626;DHT22;1827;50.534;8.316;2023-04-06T03:41:30;-3.20;99.90
3626;DHT22;1827;50.534;8.316;2023-04-06T03:44:10;-3.20;99.90
3626;DHT22;1827;50.534;8.316;2023-04-06T03:46:36;-3.30;99.90
3626;DHT22;1827;50.534;8.316;2023-04-06T03:49:02;-3.30;99.90
3626;DHT22;1827;50.534;8.316;2023-04-06T03:51:28;-3.30;99.90
3626;DHT22;1827;50.534;8.316;2023-04-06T03:53:53;-3.30;99.90
3626;DHT22;1827;50.534;8.316;2023-04-06T03:56:19;-3.30;99.90
3626;DHT22;1827;50.534;8.316;2023-04-06T03:58:45;-3.30;99.90
3626;DHT22;1827;50.534;8.316;2023-04-06T04:01:14;-3.30;99.90
3626;DHT22;1827;50.534;8.316;2023-04-06T04:03:40;-3.30;99.90
3626;DHT22;1827;50.534;8.316;2023-04-06T04:06:05;-3.30;99.90
3626;DHT22;1827;50.534;8.316;2023-04-06T04:08:32;-3.30;99.90
3626;DHT22;1827;50.534;8.316;2023-04-06T04:10:57;-3.30;99.90
3626;DHT22;1827;50.534;8.316;2023-04-06T04:13:23;-3.30;99.90
3626;DHT22;1827;50.534;8.316;2023-04-06T04:15:50;-3.40;99.90
3626;DHT22;1827;50.534;8.316;2023-04-06T04:18:16;-3.30;99.90
3626;DHT22;1827;50.534;8.316;2023-04-06T04:20:41;-3.40;99.90
3626;DHT22;1827;50.534;8.316;2023-04-06T04:23:09;-3.40;99.90
3626;DHT22;1827;50.534;8.316;2023-04-06T04:25:35;-3.40;99.90
3626;DHT22;1827;50.534;8.316;2023-04-06T04:28:00;-3.50;99.90
3626;DHT22;1827;50.534;8.316;2023-04-06T04:30:27;-3.60;99.90
3626;DHT22;1827;50.534;8.316;2023-04-06T04:32:52;-3.60;99.90
3626;DHT22;1827;50.534;8.316;2023-04-06T04:35:21;-3.60;99.90
3626;DHT22;1827;50.534;8.316;2023-04-06T04:37:46;-3.60;99.90
3626;DHT22;1827;50.534;8.316;2023-04-06T04:40:12;-3.50;99.90
3626;DHT22;1827;50.534;8.316;2023-04-06T04:42:46;-3.50;99.90
3626;DHT22;1827;50.534;8.316;2023-04-06T04:45:20;-3.60;99.90
3626;DHT22;1827;50.534;8.316;2023-04-06T04:47:46;-3.60;99.90
3626;DHT22;1827;50.534;8.316;2023-04-06T04:50:14;-3.60;99.90
3626;DHT22;1827;50.534;8.316;2023-04-06T04:52:43;-3.60;99.90
3626;DHT22;1827;50.534;8.316;2023-04-06T04:55:29;-3.60;99.90
3626;DHT22;1827;50.534;8.316;2023-04-06T04:57:57;-3.60;99.90
3626;DHT22;1827;50.534;8.316;2023-04-06T05:00:35;-3.60;99.90
3626;DHT22;1827;50.534;8.316;2023-04-06T05:03:01;-3.50;99.90
3626;DHT22;1827;50.534;8.316;2023-04-06T05:05:30;-3.60;99.90
3626;DHT22;1827;50.534;8.316;2023-04-06T05:07:56;-3.60;99.90
3626;DHT22;1827;50.534;8.316;2023-04-06T05:10:32;-3.60;99.90
3626;DHT22;1827;50.534;8.316;2023-04-06T05:13:01;-3.50;99.90
3626;DHT22;1827;50.534;8.316;2023-04-06T05:15:27;-3.50;99.90
3626;DHT22;1827;50.534;8.316;2023-04-06T05:17:58;-3.50;99.90
3626;DHT22;1827;50.534;8.316;2023-04-06T05:20:30;-3.50;99.90
3626;DHT22;1827;50.534;8.316;2023-04-06T05:22:57;-3.50;99.90
3626;DHT22;1827;50.534;8.316;2023-04-06T05:25:22;-3.40;99.90
3626;DHT22;1827;50.534;8.316;2023-04-06T05:27:51;-3.30;99.90
3626;DHT22;1827;50.534;8.316;2023-04-06T05:30:32;-3.30;99.90
3626;DHT22;1827;50.534;8.316;2023-04-06T05:32:58;-3.20;99.90
3626;DHT22;1827;50.534;8.316;2023-04-06T05:35:29;-3.10;99.90
3626;DHT22;1827;50.534;8.316;2023-04-06T05:37:59;-3.10;99.90
3626;DHT22;1827;50.534;8.316;2023-04-06T05:40:26;-3.00;99.90
3626;DHT22;1827;50.534;8.316;2023-04-06T05:42:52;-2.90;99.90
3626;DHT22;1827;50.534;8.316;2023-04-06T05:45:19;-2.80;99.90
3626;DHT22;1827;50.534;8.316;2023-04-06T05:47:50;-2.80;99.90
3626;DHT22;1827;50.534;8.316;2023-04-06T05:50:22;-2.80;99.90
3626;DHT22;1827;50.534;8.316;2023-04-06T05:52:48;-2.80;99.90
3626;DHT22;1827;50.534;8.316;2023-04-06T05:55:16;-2.80;99.90
3626;DHT22;1827;50.534;8.316;2023-04-06T05:57:47;-2.70;99.90
3626;DHT22;1827;50.534;8.316;2023-04-06T06:00:16;-2.60;99.90
3626;DHT22;1827;50.534;8.316;2023-04-06T06:02:51;-2.50;99.90
3626;DHT22;1827;50.534;8.316;2023-04-06T06:05:21;-2.40;99.90
3626;DHT22;1827;50.534;8.316;2023-04-06T06:07:47;-2.30;99.90
3626;DHT22;1827;50.534;8.316;2023-04-06T06:10:13;-2.20;99.90
3626;DHT22;1827;50.534;8.316;2023-04-06T06:12:39;-2.20;99.90
3626;DHT22;1827;50.534;8.316;2023-04-06T06:15:05;-2.00;99.90
3626;DHT22;1827;50.534;8.316;2023-04-06T06:17:35;-2.00;99.90
3626;DHT22;1827;50.534;8.316;2023-04-06T06:20:01;-1.80;99.90
3626;DHT22;1827;50.534;8.316;2023-04-06T06:22:27;-1.60;99.90
3626;DHT22;1827;50.534;8.316;2023-04-06T06:24:53;-1.70;99.90
3626;DHT22;1827;50.534;8.316;2023-04-06T06:27:20;-1.40;99.90
3626;DHT22;1827;50.534;8.316;2023-04-06T06:29:46;-1.40;99.90
3626;DHT22;1827;50.534;8.316;2023-04-06T06:32:13;-1.30;99.90
3626;DHT22;1827;50.534;8.316;2023-04-06T06:34:40;-1.10;99.90
3626;DHT22;1827;50.534;8.316;2023-04-06T06:37:07;-0.80;99.90
3626;DHT22;1827;50.534;8.316;2023-04-06T06:39:35;-1.20;99.90
3626;DHT22;1827;50.534;8.316;2023-04-06T06:42:01;-0.90;99.90
3626;DHT22;1827;50.534;8.316;2023-04-06T06:44:44;-1.00;99.90
3626;DHT22;1827;50.534;8.316;2023-04-06T06:47:10;-0.90;99.90
3626;DHT22;1827;50.534;8.316;2023-04-06T06:49:35;-0.80;99.90
3626;DHT22;1827;50.534;8.316;2023-04-06T06:52:01;-0.60;98.90
3626;DHT22;1827;50.534;8.316;2023-04-06T06:54:27;-0.60;64.60
3626;DHT22;1827;50.534;8.316;2023-04-06T06:56:52;-0.40;40.60
3626;DHT22;1827;50.534;8.316;2023-04-06T06:59:19;-0.30;26.00
3626;DHT22;1827;50.534;8.316;2023-04-06T07:01:46;0.00;12.30
3626;DHT22;1827;50.534;8.316;2023-04-06T07:04:12;0.10;1.00
3626;DHT22;1827;50.534;8.316;2023-04-06T07:06:37;0.40;1.00
3626;DHT22;1827;50.534;8.316;2023-04-06T07:09:03;0.80;1.00
3626;DHT22;1827;50.534;8.316;2023-04-06T07:11:29;0.80;1.00
3626;DHT22;1827;50.534;8.316;2023-04-06T07:13:55;1.10;1.00
3626;DHT22;1827;50.534;8.316;2023-04-06T07:16:21;1.50;1.00
3626;DHT22;1827;50.534;8.316;2023-04-06T07:18:47;2.00;1.00
3626;DHT22;1827;50.534;8.316;2023-04-06T07:21:13;1.60;1.00
3626;DHT22;1827;50.534;8.316;2023-04-06T07:23:39;1.60;1.00
3626;DHT22;1827;50.534;8.316;2023-04-06T07:26:06;2.00;1.00
3626;DHT22;1827;50.534;8.316;2023-04-06T07:28:31;1.90;1.00
3626;DHT22;1827;50.534;8.316;2023-04-06T07:30:57;2.30;1.00
3626;DHT22;1827;50.534;8.316;2023-04-06T07:33:23;2.60;1.00
3626;DHT22;1827;50.534;8.316;2023-04-06T07:35:50;2.60;1.00
3626;DHT22;1827;50.534;8.316;2023-04-06T07:38:16;2.60;1.00
3626;DHT22;1827;50.534;8.316;2023-04-06T07:40:42;3.00;1.00
3626;DHT22;1827;50.534;8.316;2023-04-06T07:43:08;3.00;1.00
3626;DHT22;1827;50.534;8.316;2023-04-06T07:45:34;2.70;1.00
3626;DHT22;1827;50.534;8.316;2023-04-06T07:48:01;3.40;1.00
3626;DHT22;1827;50.534;8.316;2023-04-06T07:50:27;3.80;1.00
3626;DHT22;1827;50.534;8.316;2023-04-06T07:52:54;3.30;1.00
3626;DHT22;1827;50.534;8.316;2023-04-06T07:55:20;3.40;1.00
3626;DHT22;1827;50.534;8.316;2023-04-06T07:57:45;3.40;1.00
3626;DHT22;1827;50.534;8.316;2023-04-06T08:00:11;3.40;1.00
3626;DHT22;1827;50.534;8.316;2023-04-06T08:02:39;4.40;1.00
3626;DHT22;1827;50.534;8.316;2023-04-06T08:05:05;4.70;1.00
3626;DHT22;1827;50.534;8.316;2023-04-06T08:07:31;5.50;1.00
3626;DHT22;1827;50.534;8.316;2023-04-06T08:09:57;4.70;1.00
3626;DHT22;1827;50.534;8.316;2023-04-06T08:12:22;5.30;1.00
3626;DHT22;1827;50.534;8.316;2023-04-06T08:14:48;6.30;1.00
3626;DHT22;1827;50.534;8.316;2023-04-06T08:17:14;6.00;1.00
3626;DHT22;1827;50.534;8.316;2023-04-06T08:19:43;6.60;1.00
3626;DHT22;1827;50.534;8.316;2023-04-06T08:22:10;5.40;99.90
3626;DHT22;1827;50.534;8.316;2023-04-06T08:24:35;4.80;99.90
3626;DHT22;1827;50.534;8.316;2023-04-06T08:27:01;4.70;99.90
3626;DHT22;1827;50.534;8.316;2023-04-06T08:29:27;5.30;99.90
3626;DHT22;1827;50.534;8.316;2023-04-06T08:31:52;4.80;99.90
3626;DHT22;1827;50.534;8.316;2023-04-06T08:34:18;5.80;99.90
3626;DHT22;1827;50.534;8.316;2023-04-06T08:36:44;5.80;99.90
3626;DHT22;1827;50.534;8.316;2023-04-06T08:39:11;5.50;99.90
3626;DHT22;1827;50.534;8.316;2023-04-06T08:41:37;5.60;99.90
3626;DHT22;1827;50.534;8.316;2023-04-06T08:44:03;5.90;99.90
3626;DHT22;1827;50.534;8.316;2023-04-06T08:46:30;6.30;99.90
3626;DHT22;1827;50.534;8.316;2023-04-06T08:49:00;6.90;99.90
3626;DHT22;1827;50.534;8.316;2023-04-06T08:51:27;6.60;99.90
3626;DHT22;1827;50.534;8.316;2023-04-06T08:53:54;6.20;99.90
3626;DHT22;1827;50.534;8.316;2023-04-06T08:56:25;6.80;99.90
3626;DHT22;1827;50.534;8.316;2023-04-06T08:58:55;6.80;99.90
3626;DHT22;1827;50.534;8.316;2023-04-06T09:01:25;7.50;99.90
3626;DHT22;1827;50.534;8.316;2023-04-06T09:03:56;7.50;99.90
3626;DHT22;1827;50.534;8.316;2023-04-06T09:06:22;7.00;99.90
3626;DHT22;1827;50.534;8.316;2023-04-06T09:08:48;7.10;99.90
3626;DHT22;1827;50.534;8.316;2023-04-06T09:11:14;7.30;99.90
3626;DHT22;1827;50.534;8.316;2023-04-06T09:13:55;8.00;99.90
3626;DHT22;1827;50.534;8.316;2023-04-06T09:16:22;7.40;99.90
3626;DHT22;1827;50.534;8.316;2023-04-06T09:18:49;7.70;99.90
3626;DHT22;1827;50.534;8.316;2023-04-06T09:21:19;8.40;99.90
3626;DHT22;1827;50.534;8.316;2023-04-06T09:23:45;8.10;99.90
3626;DHT22;1827;50.534;8.316;2023-04-06T09:26:14;8.10;99.90
3626;DHT22;1827;50.534;8.316;2023-04-06T09:28:53;8.40;99.90
3626;DHT22;1827;50.534;8.316;2023-04-06T09:33:49;9.30;99.90
3626;DHT22;1827;50.534;8.316;2023-04-06T09:36:15;10.20;99.90
3626;DHT22;1827;50.534;8.316;2023-04-06T09:39:01;8.40;99.90
3626;DHT22;1827;50.534;8.316;2023-04-06T09:41:35;8.80;99.90
3626;DHT22;1827;50.534;8.316;2023-04-06T09:44:08;8.90;99.90
3626;DHT22;1827;50.534;8.316;2023-04-06T09:46:36;9.20;99.90
3626;DHT22;1827;50.534;8.316;2023-04-06T09:49:03;9.60;99.90
3626;DHT22;1827;50.534;8.316;2023-04-06T09:51:45;9.00;99.90
3626;DHT22;1827;50.534;8.316;2023-04-06T09:54:28;9.80;99.90
3626;DHT22;1827;50.534;8.316;2023-04-06T09:57:07;10.70;99.90
3626;DHT22;1827;50.534;8.316;2023-04-06T10:03:17;10.60;99.90
3626;DHT22;1827;50.534;8.316;2023-04-06T10:05:55;10.50;99.90
3626;DHT22;1827;50.534;8.316;2023-04-06T10:08:27;11.10;99.90
3626;DHT22;1827;50.534;8.316;2023-04-06T10:10:55;12.20;99.90
3626;DHT22;1827;50.534;8.316;2023-04-06T10:13:22;12.60;99.90
3626;DHT22;1827;50.534;8.316;2023-04-06T10:15:49;12.60;99.90
3626;DHT22;1827;50.534;8.316;2023-04-06T10:18:15;13.60;99.90
3626;DHT22;1827;50.534;8.316;2023-04-06T10:20:57;13.10;99.90
3626;DHT22;1827;50.534;8.316;2023-04-06T10:23:47;13.00;99.90
3626;DHT22;1827;50.534;8.316;2023-04-06T10:26:15;12.90;99.90
3626;DHT22;1827;50.534;8.316;2023-04-06T10:28:43;14.00;99.90
3626;DHT22;1827;50.534;8.316;2023-04-06T10:31:09;15.10;99.90
3626;DHT22;1827;50.534;8.316;2023-04-06T10:33:35;14.40;99.90
3626;DHT22;1827;50.534;8.316;2023-04-06T10:36:24;14.50;99.90
3626;DHT22;1827;50.534;8.316;2023-04-06T10:39:03;15.10;99.90
3626;DHT22;1827;50.534;8.316;2023-04-06T10:41:44;14.70;99.90
3626;DHT22;1827;50.534;8.316;2023-04-06T10:44:22;14.50;99.90
3626;DHT22;1827;50.534;8.316;2023-04-06T10:46:53;14.80;99.90
3626;DHT22;1827;50.534;8.316;2023-04-06T10:49:20;15.20;99.90
3626;DHT22;1827;50.534;8.316;2023-04-06T10:51:52;15.80;99.90
3626;DHT22;1827;50.534;8.316;2023-04-06T10:54:20;15.70;99.90
3626;DHT22;1827;50.534;8.316;2023-04-06T10:56:46;16.10;99.90
3626;DHT22;1827;50.534;8.316;2023-04-06T10:59:11;16.40;99.90
3626;DHT22;1827;50.534;8.316;2023-04-06T11:01:37;16.30;99.90
3626;DHT22;1827;50.534;8.316;2023-04-06T11:04:03;16.00;99.90
3626;DHT22;1827;50.534;8.316;2023-04-06T11:06:30;15.70;99.90
3626;DHT22;1827;50.534;8.316;2023-04-06T11:08:57;15.40;99.90
3626;DHT22;1827;50.534;8.316;2023-04-06T11:11:25;14.90;99.90
3626;DHT22;1827;50.534;8.316;2023-04-06T11:13:57;14.80;99.90
3626;DHT22;1827;50.534;8.316;2023-04-06T11:16:31;15.30;99.90
3626;DHT22;1827;50.534;8.316;2023-04-06T11:19:04;15.00;99.90
3626;DHT22;1827;50.534;8.316;2023-04-06T11:21:39;15.30;99.90
3626;DHT22;1827;50.534;8.316;2023-04-06T11:26:40;14.60;99.90
3626;DHT22;1827;50.534;8.316;2023-04-06T11:29:06;14.50;99.90
3626;DHT22;1827;50.534;8.316;2023-04-06T11:31:40;14.50;99.90
3626;DHT22;1827;50.534;8.316;2023-04-06T11:34:20;14.40;99.90
3626;DHT22;1827;50.534;8.316;2023-04-06T11:36:48;14.50;99.90
3626;DHT22;1827;50.534;8.316;2023-04-06T11:39:22;14.80;99.90
3626;DHT22;1827;50.534;8.316;2023-04-06T11:41:58;14.80;99.90
3626;DHT22;1827;50.534;8.316;2023-04-06T11:44:42;14.80;99.90
3626;DHT22;1827;50.534;8.316;2023-04-06T11:47:12;15.30;99.90
3626;DHT22;1827;50.534;8.316;2023-04-06T11:49:39;15.60;99.90
3626;DHT22;1827;50.534;8.316;2023-04-06T11:54:41;14.90;99.90
3626;DHT22;1827;50.534;8.316;2023-04-06T11:57:08;14.60;99.90
3626;DHT22;1827;50.534;8.316;2023-04-06T11:59:34;14.40;99.90
3626;DHT22;1827;50.534;8.316;2023-04-06T12:02:04;14.60;99.90
3626;DHT22;1827;50.534;8.316;2023-04-06T12:04:30;15.10;99.90
3626;DHT22;1827;50.534;8.316;2023-04-06T12:06:56;15.50;99.90
3626;DHT22;1827;50.534;8.316;2023-04-06T12:09:22;15.50;99.90
3626;DHT22;1827;50.534;8.316;2023-04-06T12:11:48;15.90;99.90
3626;DHT22;1827;50.534;8.316;2023-04-06T12:14:13;15.70;99.90
3626;DHT22;1827;50.534;8.316;2023-04-06T12:16:40;15.00;99.90
3626;DHT22;1827;50.534;8.316;2023-04-06T12:19:06;14.80;99.90
3626;DHT22;1827;50.534;8.316;2023-04-06T12:21:33;14.70;99.90
3626;DHT22;1827;50.534;8.316;2023-04-06T12:24:00;14.60;99.90
3626;DHT22;1827;50.534;8.316;2023-04-06T12:26:26;14.60;99.90
3626;DHT22;1827;50.534;8.316;2023-04-06T12:28:53;14.70;99.90
3626;DHT22;1827;50.534;8.316;2023-04-06T12:31:20;14.80;99.90
3626;DHT22;1827;50.534;8.316;2023-04-06T12:33:47;14.60;99.90
3626;DHT22;1827;50.534;8.316;2023-04-06T12:36:18;14.80;99.90
3626;DHT22;1827;50.534;8.316;2023-04-06T12:38:48;15.00;99.90
3626;DHT22;1827;50.534;8.316;2023-04-06T12:41:14;15.30;99.90
3626;DHT22;1827;50.534;8.316;2023-04-06T12:43:41;15.30;99.90
3626;DHT22;1827;50.534;8.316;2023-04-06T12:46:08;15.10;99.90
3626;DHT22;1827;50.534;8.316;2023-04-06T12:48:34;15.00;99.90
3626;DHT22;1827;50.534;8.316;2023-04-06T12:51:01;15.10;99.90
3626;DHT22;1827;50.534;8.316;2023-04-06T12:53:27;15.00;99.90
3626;DHT22;1827;50.534;8.316;2023-04-06T12:55:56;15.10;99.90
3626;DHT22;1827;50.534;8.316;2023-04-06T12:58:22;14.70;99.90
3626;DHT22;1827;50.534;8.316;2023-04-06T13:00:49;14.80;99.90
3626;DHT22;1827;50.534;8.316;2023-04-06T13:03:16;14.90;99.90
3626;DHT22;1827;50.534;8.316;2023-04-06T13:05:49;15.30;99.90
3626;DHT22;1827;50.534;8.316;2023-04-06T13:08:16;15.40;99.90
3626;DHT22;1827;50.534;8.316;2023-04-06T13:10:49;15.40;99.90
3626;DHT22;1827;50.534;8.316;2023-04-06T13:13:16;14.90;99.90
3626;DHT22;1827;50.534;8.316;2023-04-06T13:15:42;14.90;99.90
3626;DHT22;1827;50.534;8.316;2023-04-06T13:18:08;15.20;99.90
3626;DHT22;1827;50.534;8.316;2023-04-06T13:20:35;15.20;99.90
3626;DHT22;1827;50.534;8.316;2023-04-06T13:23:01;15.30;99.90
3626;DHT22;1827;50.534;8.316;2023-04-06T13:25:27;15.10;99.90
3626;DHT22;1827;50.534;8.316;2023-04-06T13:27:53;15.20;99.90
3626;DHT22;1827;50.534;8.316;2023-04-06T13:30:20;14.80;99.90
3626;DHT22;1827;50.534;8.316;2023-04-06T13:32:46;14.60;99.90
3626;DHT22;1827;50.534;8.316;2023-04-06T13:35:12;14.90;99.90
3626;DHT22;1827;50.534;8.316;2023-04-06T13:37:38;14.70;99.90
3626;DHT22;1827;50.534;8.316;2023-04-06T13:40:05;14.40;99.90
3626;DHT22;1827;50.534;8.316;2023-04-06T13:42:31;14.80;99.90
3626;DHT22;1827;50.534;8.316;2023-04-06T13:44:58;14.90;99.90
3626;DHT22;1827;50.534;8.316;2023-04-06T13:47:24;14.90;99.90
3626;DHT22;1827;50.534;8.316;2023-04-06T13:49:50;15.10;99.90
3626;DHT22;1827;50.534;8.316;2023-04-06T13:52:18;14.80;99.90
3626;DHT22;1827;50.534;8.316;2023-04-06T13:54:44;14.50;99.90
3626;DHT22;1827;50.534;8.316;2023-04-06T13:57:10;14.60;99.90
3626;DHT22;1827;50.534;8.316;2023-04-06T13:59:37;14.30;99.90
3626;DHT22;1827;50.534;8.316;2023-04-06T14:02:05;14.20;99.90
3626;DHT22;1827;50.534;8.316;2023-04-06T14:04:31;14.00;99.90
3626;DHT22;1827;50.534;8.316;2023-04-06T14:06:57;14.10;99.90
3626;DHT22;1827;50.534;8.316;2023-04-06T14:09:23;14.20;99.90
3626;DHT22;1827;50.534;8.316;2023-04-06T14:11:49;14.30;99.90
3626;DHT22;1827;50.534;8.316;2023-04-06T14:14:15;14.50;99.90
3626;DHT22;1827;50.534;8.316;2023-04-06T14:16:43;14.50;99.90
3626;DHT22;1827;50.534;8.316;2023-04-06T14:19:10;14.20;99.90
3626;DHT22;1827;50.534;8.316;2023-04-06T14:21:40;14.20;99.90
3626;DHT22;1827;50.534;8.316;2023-04-06T14:24:10;14.00;99.90
3626;DHT22;1827;50.534;8.316;2023-04-06T14:26:36;14.30;99.90
3626;DHT22;1827;50.534;8.316;2023-04-06T14:29:03;14.40;99.90
3626;DHT22;1827;50.534;8.316;2023-04-06T14:31:30;14.50;99.90
3626;DHT22;1827;50.534;8.316;2023-04-06T14:33:56;14.40;99.90
3626;DHT22;1827;50.534;8.316;2023-04-06T14:36:22;14.20;99.90
3626;DHT22;1827;50.534;8.316;2023-04-06T14:38:47;14.00;99.90
3626;DHT22;1827;50.534;8.316;2023-04-06T14:41:17;13.70;99.90
3626;DHT22;1827;50.534;8.316;2023-04-06T14:43:44;13.40;99.90
3626;DHT22;1827;50.534;8.316;2023-04-06T14:46:10;13.40;99.90
3626;DHT22;1827;50.534;8.316;2023-04-06T14:48:36;13.20;99.90
3626;DHT22;1827;50.534;8.316;2023-04-06T14:51:02;13.30;99.90
3626;DHT22;1827;50.534;8.316;2023-04-06T14:53:28;13.30;99.90
3626;DHT22;1827;50.534;8.316;2023-04-06T14:55:56;13.30;99.90
3626;DHT22;1827;50.534;8.316;2023-04-06T14:58:23;13.50;99.90
3626;DHT22;1827;50.534;8.316;2023-04-06T15:00:49;13.30;99.90
3626;DHT22;1827;50.534;8.316;2023-04-06T15:03:15;13.40;99.90
3626;DHT22;1827;50.534;8.316;2023-04-06T15:05:41;13.20;99.90
3626;DHT22;1827;50.534;8.316;2023-04-06T15:08:07;13.30;99.90
3626;DHT22;1827;50.534;8.316;2023-04-06T15:10:39;13.40;99.90
3626;DHT22;1827;50.534;8.316;2023-04-06T15:13:04;13.50;99.90
3626;DHT22;1827;50.534;8.316;2023-04-06T15:15:30;13.60;99.90
3626;DHT22;1827;50.534;8.316;2023-04-06T15:17:56;13.60;99.90
3626;DHT22;1827;50.534;8.316;2023-04-06T15:20:22;13.40;99.90
3626;DHT22;1827;50.534;8.316;2023-04-06T15:22:47;13.30;99.90
3626;DHT22;1827;50.534;8.316;2023-04-06T15:25:14;13.10;99.90
3626;DHT22;1827;50.534;8.316;2023-04-06T15:27:41;13.30;99.90
3626;DHT22;1827;50.534;8.316;2023-04-06T15:30:07;13.30;99.90
3626;DHT22;1827;50.534;8.316;2023-04-06T15:32:33;12.90;99.90
3626;DHT22;1827;50.534;8.316;2023-04-06T15:34:59;12.80;99.90
3626;DHT22;1827;50.534;8.316;2023-04-06T15:37:25;12.80;99.90
3626;DHT22;1827;50.534;8.316;2023-04-06T15:39:51;13.00;99.90
3626;DHT22;1827;50.534;8.316;2023-04-06T15:42:17;13.00;99.90
3626;DHT22;1827;50.534;8.316;2023-04-06T15:44:46;12.80;99.90
3626;DHT22;1827;50.534;8.316;2023-04-06T15:47:12;12.60;99.90
3626;DHT22;1827;50.534;8.316;2023-04-06T15:49:37;12.60;99.90
3626;DHT22;1827;50.534;8.316;2023-04-06T15:52:03;12.60;99.90
3626;DHT22;1827;50.534;8.316;2023-04-06T15:54:30;12.70;99.90
3626;DHT22;1827;50.534;8.316;2023-04-06T15:56:55;12.50;99.90
3626;DHT22;1827;50.534;8.316;2023-04-06T15:59:21;12.30;99.90
3626;DHT22;1827;50.534;8.316;2023-04-06T16:01:47;12.40;99.90
3626;DHT22;1827;50.534;8.316;2023-04-06T16:04:13;12.40;99.90
3626;DHT22;1827;50.534;8.316;2023-04-06T16:06:39;12.30;99.90
3626;DHT22;1827;50.534;8.316;2023-04-06T16:09:05;12.20;99.90
3626;DHT22;1827;50.534;8.316;2023-04-06T16:11:30;12.20;99.90
3626;DHT22;1827;50.534;8.316;2023-04-06T16:13:57;12.10;99.90
3626;DHT22;1827;50.534;8.316;2023-04-06T16:16:23;12.00;99.90
3626;DHT22;1827;50.534;8.316;2023-04-06T16:18:48;11.70;99.90
3626;DHT22;1827;50.534;8.316;2023-04-06T16:21:15;11.80;99.90
3626;DHT22;1827;50.534;8.316;2023-04-06T16:23:45;11.80;99.90
3626;DHT22;1827;50.534;8.316;2023-04-06T16:26:15;11.80;99.90